Ridott, Illinois
Current Conditions -  °F | °C
As of 9:15 AM on Saturday 20 Dec 2014 (Local Time) from KFEP Reporting Station
Haze Haze  
Wind Chill: 22°   Ceiling: 4200
Heat Index: 28°   Visibility: 5mi
Dew Point: 25°   Wind: 5mph
Humidity: 89%   Direction: 130°SE
Pressure: 30.28"   Gusts: NA
Location:  42.3°N, 89.48°W
Report Text: KFEP 201515Z AUTO 13004KT 5SM BR BKN042 OVC055 M02/M04 A3028 RMK AO2 T10251041
Loading
Personal Weather Stations






























Interactive Weather Map New forecast layout! Learn more

10-Day Weather Forecast

Advertisements
Track Severe Weather on mobile